Time;durP1;ratioP1;P1;durP2;ratioP2;P2;SDS_P1;SDS_P2;PMS_P1;PMS_P2;Temp;Humidity;BMP_temperature;BMP_pressure;BME280_temperature;BME280_humidity;BME280_pressure;Samples;Min_cycle;Max_cycle;Signal;HPM_P1;HPM_P2
2022/09/27 00:01:16;;;;;;;2.28;1.48;;;;;;;20.62;69.99;94788.31;5102736;27;20071;-49
2022/09/27 00:03:45;;;;;;;3.25;1.85;;;;;;;19.87;81.43;94789.63;5101605;27;20514;-52
2022/09/27 00:06:15;;;;;;;3.80;1.83;;;;;;;20.16;77.81;94792.97;5104933;27;20079;-47
2022/09/27 00:08:43;;;;;;;2.60;1.70;;;;;;;19.73;88.75;94791.00;5104034;27;20075;-52
2022/09/27 00:11:20;;;;;;;1.92;1.55;;;;;;;20.27;83.49;94786.75;5104515;27;20466;-54
2022/09/27 00:13:50;;;;;;;3.35;1.40;;;;;;;19.70;91.03;94778.91;5108554;27;20445;-50
2022/09/27 00:16:18;;;;;;;3.17;1.80;;;;;;;19.91;88.55;94778.16;5096621;27;20087;-52
2022/09/27 00:18:47;;;;;;;3.13;1.65;;;;;;;20.48;84.58;94774.44;5103178;27;20079;-50
2022/09/27 00:21:15;;;;;;;1.98;1.40;;;;;;;20.38;86.19;94769.75;5107333;27;20075;-50
2022/09/27 00:23:44;;;;;;;2.67;1.77;;;;;;;20.05;93.51;94765.28;5105428;27;20074;-48
2022/09/27 00:26:13;;;;;;;1.85;1.50;;;;;;;20.74;85.38;94759.50;5106206;27;20082;-48
2022/09/27 00:28:42;;;;;;;2.35;1.70;;;;;;;20.86;86.83;94767.44;5099280;27;20082;-53
2022/09/27 00:31:22;;;;;;;2.35;1.88;;;;;;;20.32;94.53;94759.22;5110884;27;20086;-47
2022/09/27 00:33:52;;;;;;;2.17;1.63;;;;;;;20.29;100.00;94752.50;5101461;27;20079;-48
2022/09/27 00:36:22;;;;;;;2.63;1.90;;;;;;;20.30;100.00;94758.66;5083635;28;20060;-48
2022/09/27 00:38:51;;;;;;;2.20;1.83;;;;;;;19.77;100.00;94762.69;5099664;27;20082;-51
2022/09/27 00:41:21;;;;;;;2.70;1.75;;;;;;;19.87;100.00;94754.84;5101431;27;20071;-48
2022/09/27 00:43:50;;;;;;;;;;;;;;;20.19;100.00;94748.88;5081019;28;20474;-52
2022/09/27 00:46:23;;;;;;;2.97;1.45;;;;;;;19.54;100.00;94756.41;5099676;27;20056;-49
2022/09/27 00:49:02;;;;;;;3.05;1.85;;;;;;;20.49;100.00;94737.75;5096688;27;20173;-48
2022/09/27 00:51:32;;;;;;;3.60;1.80;;;;;;;19.42;100.00;94743.13;5104352;27;20082;-52
2022/09/27 00:54:00;;;;;;;6.43;2.08;;;;;;;19.69;100.00;94734.50;5100975;27;20718;-49
2022/09/27 00:56:30;;;;;;;2.85;1.70;;;;;;;19.00;100.00;94752.53;5111315;27;20067;-55
2022/09/27 00:59:03;;;;;;;1.95;1.70;;;;;;;19.56;100.00;94740.16;5085450;28;20074;-50
2022/09/27 01:01:33;;;;;;;3.42;1.80;;;;;;;20.01;100.00;94737.38;5103615;27;20403;-50
2022/09/27 01:04:05;;;;;;;2.00;1.60;;;;;;;19.84;100.00;94740.06;5107292;27;20524;-49
2022/09/27 01:06:34;;;;;;;1.65;1.40;;;;;;;19.67;100.00;94740.09;5096084;27;20490;-48
2022/09/27 01:09:03;;;;;;;3.22;1.40;;;;;;;19.71;100.00;94734.25;5097637;28;20082;-51
2022/09/27 01:11:43;;;;;;;2.58;1.83;;;;;;;18.78;100.00;94742.50;5104805;27;20522;-53
2022/09/27 01:14:24;;;;;;;4.03;2.00;;;;;;;19.43;100.00;94731.38;5084971;28;20067;-48
2022/09/27 01:17:01;;;;;;;6.93;1.80;;;;;;;19.10;100.00;94726.00;5103251;27;20455;-50
2022/09/27 01:19:57;;;;;;;2.67;1.73;;;;;;;19.50;100.00;94728.53;5097984;28;20098;-48
2022/09/27 01:22:29;;;;;;;3.60;1.63;;;;;;;18.64;100.00;94728.59;5108398;27;20547;-51
2022/09/27 01:25:08;;;;;;;3.22;2.10;;;;;;;19.11;100.00;94714.28;5106610;27;20080;-49
2022/09/27 01:28:06;;;;;;;4.40;1.88;;;;;;;19.72;100.00;94711.78;5098978;28;20931;-49
2022/09/27 01:30:42;;;;;;;2.92;1.70;;;;;;;19.40;100.00;94701.66;5082954;28;20086;-48
2022/09/27 01:33:17;;;;;;;4.28;2.05;;;;;;;19.56;100.00;94700.03;5108707;28;20086;-47
2022/09/27 01:35:54;;;;;;;2.22;1.70;;;;;;;19.95;100.00;94706.25;5096781;28;20518;-48
2022/09/27 01:38:26;;;;;;;3.15;1.90;;;;;;;19.82;100.00;94694.06;5104955;28;20086;-50
2022/09/27 01:40:59;;;;;;;2.10;1.77;;;;;;;19.20;100.00;94691.44;5101880;28;20632;-49
2022/09/27 01:43:31;;;;;;;2.80;1.83;;;;;;;18.74;100.00;94695.97;5107156;28;20071;-54
2022/09/27 01:46:04;;;;;;;2.45;1.90;;;;;;;19.11;100.00;94693.69;5105799;28;20063;-49
2022/09/27 01:48:36;;;;;;;3.25;2.08;;;;;;;19.32;100.00;94688.69;5101965;27;20080;-48
2022/09/27 01:51:08;;;;;;;2.80;1.77;;;;;;;18.67;100.00;94685.41;5103793;28;20563;-52
2022/09/27 01:53:38;;;;;;;3.42;2.08;;;;;;;19.40;100.00;94683.75;5100664;27;20083;-49
2022/09/27 01:56:10;;;;;;;5.13;2.15;;;;;;;18.73;100.00;94684.47;5107932;27;20067;-48
2022/09/27 01:58:42;;;;;;;5.97;2.03;;;;;;;18.56;100.00;94678.25;5103543;27;20067;-47
2022/09/27 02:01:14;;;;;;;3.28;2.40;;;;;;;18.84;100.00;94679.31;5101723;27;20074;-49
2022/09/27 02:03:44;;;;;;;3.10;2.22;;;;;;;19.10;100.00;94686.75;5110771;27;20493;-51
2022/09/27 02:06:16;;;;;;;4.13;2.13;;;;;;;18.95;100.00;94679.25;5100574;28;20079;-49
2022/09/27 02:08:48;;;;;;;4.03;2.15;;;;;;;18.91;100.00;94680.00;5098885;27;20079;-50
2022/09/27 02:11:17;;;;;;;2.55;2.10;;;;;;;18.71;100.00;94683.06;5103893;27;20078;-46
2022/09/27 02:13:49;;;;;;;4.20;2.30;;;;;;;19.10;100.00;94678.72;5107021;27;20545;-51
2022/09/27 02:16:25;;;;;;;2.65;2.00;;;;;;;18.40;100.00;94687.00;5099704;27;20082;-50
2022/09/27 02:19:00;;;;;;;3.92;2.50;;;;;;;18.45;100.00;94687.94;5112963;27;20079;-53
2022/09/27 02:21:33;;;;;;;4.22;2.05;;;;;;;17.74;100.00;94679.22;5098497;27;20082;-53
2022/09/27 02:24:03;;;;;;;4.88;2.25;;;;;;;18.24;100.00;94683.25;5113162;27;20075;-46
2022/09/27 02:26:33;;;;;;;;;;;;;;;18.52;100.00;94697.66;5112405;27;20128;-53
2022/09/27 02:29:06;;;;;;;4.15;2.33;;;;;;;18.46;100.00;94694.06;5113065;27;19967;-46
2022/09/27 02:31:36;;;;;;;5.25;2.13;;;;;;;17.51;100.00;94687.19;5108584;27;20173;-49
2022/09/27 02:34:07;;;;;;;3.00;2.20;;;;;;;18.52;100.00;94690.47;5102476;27;20165;-51
2022/09/27 02:36:36;;;;;;;3.38;2.03;;;;;;;17.86;100.00;94686.41;5103854;27;20097;-49
2022/09/27 02:39:05;;;;;;;3.55;2.10;;;;;;;17.82;100.00;94691.41;5104475;27;20086;-46
2022/09/27 02:41:33;;;;;;;2.67;1.70;;;;;;;17.70;100.00;94696.72;5107023;27;20080;-48
2022/09/27 02:44:04;;;;;;;3.20;1.77;;;;;;;17.82;100.00;94690.59;5113133;27;20727;-46
2022/09/27 02:46:47;;;;;;;4.05;1.90;;;;;;;18.33;100.00;94684.47;5108613;27;20087;-50
2022/09/27 02:49:25;;;;;;;4.43;2.20;;;;;;;17.47;100.00;94667.38;5100550;27;20088;-49
2022/09/27 02:52:00;;;;;;;2.55;1.92;;;;;;;18.06;100.00;94644.16;5099894;27;20082;-52
2022/09/27 02:54:36;;;;;;;4.50;2.25;;;;;;;18.48;100.00;94649.28;5104867;27;20079;-47
2022/09/27 02:57:12;;;;;;;5.38;2.30;;;;;;;18.14;100.00;94651.03;5109515;27;20079;-49
2022/09/27 02:59:46;;;;;;;4.72;2.30;;;;;;;18.55;100.00;94641.09;5103900;27;20086;-48
2022/09/27 03:02:22;;;;;;;4.47;2.33;;;;;;;17.97;100.00;94651.75;5093382;27;20075;-49
2022/09/27 03:04:55;;;;;;;6.13;2.38;;;;;;;18.24;100.00;94648.56;5103157;27;20090;-47
2022/09/27 03:07:24;;;;;;;3.15;2.35;;;;;;;18.33;100.00;94647.13;5097306;28;20461;-48
2022/09/27 03:09:54;;;;;;;3.85;2.50;;;;;;;18.65;100.00;94633.28;5104599;27;20090;-52
2022/09/27 03:12:24;;;;;;;4.33;2.57;;;;;;;18.38;100.00;94638.41;5105602;28;20090;-48
2022/09/27 03:14:54;;;;;;;5.93;2.72;;;;;;;17.72;100.00;94640.50;5121508;27;20074;-49
2022/09/27 03:17:24;;;;;;;5.47;2.65;;;;;;;17.83;100.00;94639.72;5108024;27;20075;-47
2022/09/27 03:19:53;;;;;;;4.00;2.47;;;;;;;18.53;100.00;94621.88;5112915;27;20079;-50
2022/09/27 03:22:21;;;;;;;3.45;2.17;;;;;;;18.03;100.00;94629.47;5097029;27;20541;-51
2022/09/27 03:24:50;;;;;;;4.72;2.30;;;;;;;17.83;100.00;94631.72;5091950;27;20067;-47
2022/09/27 03:27:18;;;;;;;4.40;2.70;;;;;;;18.21;100.00;94628.50;5099869;27;20071;-50
2022/09/27 03:29:47;;;;;;;3.85;2.33;;;;;;;18.16;100.00;94623.03;5103773;27;20306;-47
2022/09/27 03:32:15;;;;;;;4.43;2.60;;;;;;;17.51;100.00;94631.25;5107455;27;20075;-46
2022/09/27 03:34:45;;;;;;;3.83;2.33;;;;;;;18.06;100.00;94624.69;5102115;27;20087;-48
2022/09/27 03:37:14;;;;;;;3.78;2.38;;;;;;;18.26;100.00;94623.25;5104834;28;20082;-48
2022/09/27 03:39:42;;;;;;;3.55;2.40;;;;;;;18.31;100.00;94619.06;5105673;27;20110;-50
2022/09/27 03:42:10;;;;;;;4.93;2.60;;;;;;;18.67;100.00;94618.66;5100507;27;20090;-50
2022/09/27 03:44:39;;;;;;;4.03;2.47;;;;;;;18.44;100.00;94606.25;5102166;27;20091;-49
2022/09/27 03:47:07;;;;;;;4.05;2.47;;;;;;;17.83;100.00;94612.25;5097585;28;20506;-47
2022/09/27 03:49:36;;;;;;;4.22;2.80;;;;;;;18.45;100.00;94605.19;5103360;27;20086;-47
2022/09/27 03:52:06;;;;;;;5.20;2.58;;;;;;;18.09;100.00;94601.03;5106745;27;20084;-47
2022/09/27 03:54:34;;;;;;;4.53;2.97;;;;;;;18.52;100.00;94599.72;5100827;28;20074;-47
2022/09/27 03:57:03;;;;;;;4.47;3.00;;;;;;;18.83;100.00;94598.41;5101781;27;20059;-49
2022/09/27 03:59:32;;;;;;;5.05;2.60;;;;;;;18.98;100.00;94598.66;5106890;27;20091;-52
2022/09/27 04:02:00;;;;;;;3.50;2.83;;;;;;;18.82;100.00;94593.28;5094408;27;20086;-50
2022/09/27 04:04:29;;;;;;;4.32;2.67;;;;;;;18.86;100.00;94589.13;5113233;27;20529;-48
2022/09/27 04:06:58;;;;;;;4.35;2.92;;;;;;;18.80;100.00;94585.53;5102314;27;20145;-50
2022/09/27 04:09:28;;;;;;;3.53;2.53;;;;;;;18.07;100.00;94595.13;5105476;27;20079;-50
2022/09/27 04:11:56;;;;;;;3.25;2.17;;;;;;;18.05;100.00;94591.88;5104372;27;20071;-53
2022/09/27 04:14:24;;;;;;;3.50;2.20;;;;;;;17.30;100.00;94600.66;5099780;27;20071;-49
2022/09/27 04:16:53;;;;;;;15.68;9.65;;;;;;;17.82;100.00;94591.94;5101120;27;20441;-53
2022/09/27 04:19:22;;;;;;;38.05;22.67;;;;;;;17.78;100.00;94596.94;5103113;27;20083;-47
2022/09/27 04:21:50;;;;;;;20.02;12.43;;;;;;;18.09;100.00;94578.88;5097495;28;20079;-51
2022/09/27 04:24:19;;;;;;;4.00;3.25;;;;;;;18.21;100.00;94575.13;5096864;28;20342;-47
2022/09/27 04:26:48;;;;;;;3.90;2.60;;;;;;;17.57;100.00;94590.34;5103495;27;20083;-50
2022/09/27 04:29:17;;;;;;;2.65;2.22;;;;;;;18.10;100.00;94585.81;5097418;27;20080;-54
2022/09/27 04:31:46;;;;;;;2.97;2.22;;;;;;;18.17;100.00;94587.34;5097382;28;20079;-49
2022/09/27 04:34:14;;;;;;;3.25;2.17;;;;;;;17.93;100.00;94597.25;5093387;28;20080;-52
2022/09/27 04:36:41;;;;;;;2.53;1.75;;;;;;;17.30;100.00;94590.00;5101383;28;20079;-47
2022/09/27 04:39:10;;;;;;;4.30;2.03;;;;;;;18.51;100.00;94592.72;5099905;27;20072;-49
2022/09/27 04:41:39;;;;;;;3.17;2.10;;;;;;;17.70;100.00;94592.75;5095675;27;20076;-47
2022/09/27 04:44:10;;;;;;;2.25;1.77;;;;;;;18.21;100.00;94585.00;5101357;27;20079;-48
2022/09/27 04:46:38;;;;;;;1.77;1.58;;;;;;;17.92;100.00;94597.47;5098906;27;20090;-53
2022/09/27 04:49:07;;;;;;;2.65;1.85;;;;;;;17.39;100.00;94595.81;5101592;28;20074;-50
2022/09/27 04:51:35;;;;;;;3.28;1.90;;;;;;;18.81;100.00;94594.34;5108619;27;20522;-50
2022/09/27 04:54:04;;;;;;;2.28;1.90;;;;;;;17.94;100.00;94603.41;5103946;27;20075;-50
2022/09/27 04:56:33;;;;;;;1.95;1.60;;;;;;;17.98;100.00;94610.69;5112436;27;20481;-50
2022/09/27 04:59:01;;;;;;;2.35;1.63;;;;;;;17.89;100.00;94613.94;5108622;27;20067;-51
2022/09/27 05:01:37;;;;;;;1.90;1.40;;;;;;;18.29;100.00;94605.16;5100308;27;20079;-52
2022/09/27 05:04:05;;;;;;;2.08;1.60;;;;;;;18.06;100.00;94603.34;5110572;27;20083;-52
2022/09/27 05:06:34;;;;;;;4.00;1.60;;;;;;;18.14;100.00;94614.47;5102207;27;20078;-47
2022/09/27 05:09:02;;;;;;;2.15;1.50;;;;;;;17.33;100.00;94616.19;5101678;27;20083;-48
2022/09/27 05:11:31;;;;;;;2.75;1.60;;;;;;;17.56;100.00;94626.03;5100018;28;20090;-47
2022/09/27 05:13:59;;;;;;;1.50;1.40;;;;;;;18.11;100.00;94617.63;5090565;28;20067;-48
2022/09/27 05:16:28;;;;;;;1.75;1.38;;;;;;;17.76;100.00;94620.38;5097515;27;20074;-52
2022/09/27 05:19:02;;;;;;;1.40;1.13;;;;;;;17.16;100.00;94618.72;5095332;28;20075;-48
2022/09/27 05:21:31;;;;;;;2.92;1.50;;;;;;;17.99;100.00;94617.63;5102641;28;20075;-46
2022/09/27 05:24:00;;;;;;;2.17;1.52;;;;;;;17.52;100.00;94624.88;5085798;28;20085;-48
2022/09/27 05:26:28;;;;;;;2.58;1.30;;;;;;;17.44;100.00;94628.69;5098610;28;20094;-51
2022/09/27 05:28:57;;;;;;;3.35;1.30;;;;;;;17.39;100.00;94619.78;5091703;28;20071;-49
2022/09/27 05:31:25;;;;;;;4.05;1.38;;;;;;;17.33;100.00;94621.50;5105392;28;20097;-51
2022/09/27 05:33:54;;;;;;;1.63;1.30;;;;;;;17.34;100.00;94628.47;5098108;28;20076;-47
2022/09/27 05:36:24;;;;;;;1.30;1.20;;;;;;;17.69;100.00;94636.47;5083031;28;20070;-53
2022/09/27 05:38:53;;;;;;;1.65;1.35;;;;;;;17.60;100.00;94647.69;5085530;28;20510;-47
2022/09/27 05:41:21;;;;;;;1.70;1.20;;;;;;;18.20;100.00;94644.72;5104465;28;20087;-51
2022/09/27 05:43:51;;;;;;;1.42;1.25;;;;;;;18.02;100.00;94643.84;5102348;28;20074;-47
2022/09/27 05:46:19;;;;;;;1.67;1.08;;;;;;;17.75;100.00;94640.84;5109128;28;20079;-53
2022/09/27 05:48:48;;;;;;;2.67;1.10;;;;;;;17.90;100.00;94644.94;5108925;28;20076;-52
2022/09/27 05:51:18;;;;;;;1.75;1.20;;;;;;;17.99;100.00;94632.81;5102986;28;20071;-49
2022/09/27 05:53:48;;;;;;;2.17;1.00;;;;;;;17.43;100.00;94627.06;5100899;28;20102;-49
2022/09/27 05:56:16;;;;;;;2.10;1.10;;;;;;;17.83;100.00;94633.56;5106714;28;20652;-50
2022/09/27 05:58:45;;;;;;;1.00;0.90;;;;;;;18.25;100.00;94648.31;5114950;28;20078;-47
2022/09/27 06:01:14;;;;;;;4.85;1.05;;;;;;;17.86;100.00;94654.41;5108492;28;20533;-50
2022/09/27 06:03:42;;;;;;;2.35;1.10;;;;;;;17.82;100.00;94653.25;5109356;28;20477;-52
2022/09/27 06:06:11;;;;;;;0.77;0.77;;;;;;;17.10;100.00;94656.94;5102141;28;20481;-53
2022/09/27 06:08:40;;;;;;;1.05;0.95;;;;;;;17.11;100.00;94655.09;5108872;28;20071;-51
2022/09/27 06:11:11;;;;;;;0.90;0.90;;;;;;;17.37;100.00;94667.16;5110206;28;20071;-52
2022/09/27 06:13:41;;;;;;;1.65;0.90;;;;;;;17.48;100.00;94669.00;5102608;28;20090;-48
2022/09/27 06:16:11;;;;;;;1.23;0.82;;;;;;;18.80;100.00;94664.84;5100814;28;20091;-50
2022/09/27 06:18:40;;;;;;;1.45;0.98;;;;;;;17.53;100.00;94683.28;5092483;28;20075;-46
2022/09/27 06:21:08;;;;;;;2.13;0.90;;;;;;;17.70;100.00;94680.72;5094335;28;20537;-53
2022/09/27 06:23:37;;;;;;;1.10;0.80;;;;;;;17.41;100.00;94686.97;5099997;28;20094;-49
2022/09/27 06:26:06;;;;;;;1.10;1.00;;;;;;;17.43;100.00;94685.69;5098859;28;20087;-53
2022/09/27 06:28:36;;;;;;;4.65;1.00;;;;;;;16.68;100.00;94683.53;5097687;28;20075;-53
2022/09/27 06:31:06;;;;;;;1.30;0.82;;;;;;;16.94;100.00;94685.03;5098775;28;20106;-54
2022/09/27 06:33:35;;;;;;;;;;;;;;;17.55;100.00;94685.72;5100465;27;20083;-50
2022/09/27 06:36:05;;;;;;;1.15;1.00;;;;;;;16.68;100.00;94696.84;5105065;27;20440;-47
2022/09/27 06:38:34;;;;;;;2.15;1.00;;;;;;;17.16;100.00;94697.81;5109609;27;20091;-45
2022/09/27 06:41:03;;;;;;;1.13;0.80;;;;;;;16.74;100.00;94703.97;5106340;27;20080;-46
2022/09/27 06:43:32;;;;;;;1.27;0.82;;;;;;;17.11;100.00;94708.38;5102347;27;20075;-50
2022/09/27 06:46:04;;;;;;;1.17;0.80;;;;;;;16.73;100.00;94726.25;5100340;28;20080;-54
2022/09/27 06:48:36;;;;;;;1.65;0.90;;;;;;;16.89;100.00;94721.38;5105563;27;20076;-50
2022/09/27 06:51:05;;;;;;;3.55;0.80;;;;;;;17.09;100.00;94716.56;5099271;27;20529;-47
2022/09/27 06:53:33;;;;;;;2.50;1.00;;;;;;;17.19;100.00;94716.81;5103429;28;20101;-52
2022/09/27 06:56:02;;;;;;;1.33;0.90;;;;;;;17.81;100.00;94724.44;5104140;27;20639;-49
2022/09/27 07:01:19;;;;;;;2.13;1.10;;;;;;;17.95;100.00;94739.16;5074578;28;20078;-52
2022/09/27 07:03:50;;;;;;;2.80;0.90;;;;;;;17.33;100.00;94734.22;5100129;27;20071;-48
2022/09/27 07:06:21;;;;;;;2.15;0.80;;;;;;;17.28;100.00;94739.44;5103238;27;20524;-55
2022/09/27 07:08:52;;;;;;;1.17;0.90;;;;;;;18.00;100.00;94736.63;5099749;27;20422;-47
2022/09/27 07:11:22;;;;;;;0.98;0.80;;;;;;;17.97;100.00;94739.75;5092375;27;20255;-49
2022/09/27 07:13:50;;;;;;;;;;;;;;;17.83;100.00;94738.38;5101754;27;20441;-50
2022/09/27 07:16:38;;;;;;;1.77;0.65;;;;;;;18.26;100.00;94739.81;5103032;27;19990;-48
2022/09/27 07:19:10;;;;;;;1.88;0.75;;;;;;;17.53;100.00;94733.91;5101562;27;20532;-53
2022/09/27 07:21:38;;;;;;;1.50;0.90;;;;;;;17.88;100.00;94727.81;5102163;28;20075;-47
2022/09/27 07:24:07;;;;;;;1.95;0.95;;;;;;;17.93;100.00;94751.94;5103032;27;20076;-54
2022/09/27 07:26:35;;;;;;;1.80;0.80;;;;;;;18.05;100.00;94751.09;5101133;27;20074;-48
2022/09/27 07:29:04;;;;;;;0.82;0.65;;;;;;;17.91;100.00;94762.00;5102056;28;20075;-52
2022/09/27 07:31:32;;;;;;;3.50;0.93;;;;;;;18.39;100.00;94758.25;5099468;27;20091;-47
2022/09/27 07:34:02;;;;;;;2.10;0.60;;;;;;;17.89;100.00;94753.41;5104244;27;20071;-49
2022/09/27 07:36:31;;;;;;;4.75;0.90;;;;;;;18.36;100.00;94753.38;5104609;27;20067;-48
2022/09/27 07:39:00;;;;;;;1.48;0.70;;;;;;;18.91;100.00;94757.44;5102010;27;20072;-48
2022/09/27 07:41:28;;;;;;;2.92;0.68;;;;;;;18.05;100.00;94761.78;5098668;27;20079;-52
2022/09/27 07:43:58;;;;;;;2.35;0.90;;;;;;;18.60;100.00;94748.00;5102467;27;20079;-52
2022/09/27 07:46:27;;;;;;;1.23;0.60;;;;;;;18.71;100.00;94745.31;5096733;27;20074;-50
2022/09/27 07:48:55;;;;;;;0.85;0.52;;;;;;;17.64;100.00;94732.28;5104840;27;20597;-47
2022/09/27 07:51:25;;;;;;;4.82;0.88;;;;;;;18.79;100.00;94749.50;5107123;27;20075;-45
2022/09/27 07:53:54;;;;;;;2.30;0.70;;;;;;;17.69;100.00;94751.09;5104443;27;20521;-47
2022/09/27 07:56:22;;;;;;;2.00;0.60;;;;;;;18.39;100.00;94752.91;5103571;27;20526;-47
2022/09/27 07:58:51;;;;;;;2.10;0.85;;;;;;;18.88;100.00;94757.91;5101044;27;20082;-50
2022/09/27 08:01:19;;;;;;;1.92;0.90;;;;;;;18.65;100.00;94766.78;5103078;27;20102;-53
2022/09/27 08:03:47;;;;;;;1.27;0.63;;;;;;;18.31;100.00;94768.50;5095352;27;20552;-49
2022/09/27 08:06:17;;;;;;;2.53;0.85;;;;;;;18.04;100.00;94782.31;5103472;27;20071;-47
2022/09/27 08:08:47;;;;;;;2.22;0.80;;;;;;;17.43;100.00;94797.63;5105731;27;20467;-51
2022/09/27 08:11:17;;;;;;;4.43;1.25;;;;;;;17.32;100.00;94798.41;5102863;28;20087;-47
2022/09/27 08:13:46;;;;;;;0.88;0.70;;;;;;;16.10;100.00;94793.94;5102356;27;20109;-53
2022/09/27 08:16:15;;;;;;;1.10;0.70;;;;;;;16.67;100.00;94807.00;5106792;27;20075;-48
2022/09/27 08:18:44;;;;;;;1.48;0.85;;;;;;;16.35;100.00;94809.00;5106212;27;20079;-45
2022/09/27 08:21:12;;;;;;;1.77;0.80;;;;;;;16.17;100.00;94811.63;5103499;28;20079;-49
2022/09/27 08:23:41;;;;;;;2.90;0.90;;;;;;;16.83;100.00;94810.94;5103850;27;20085;-51
2022/09/27 08:26:11;;;;;;;2.75;0.80;;;;;;;16.77;100.00;94807.31;5110011;27;20078;-50
2022/09/27 08:28:39;;;;;;;2.70;1.08;;;;;;;16.87;100.00;94811.31;5106486;27;20075;-46
2022/09/27 08:31:08;;;;;;;0.93;0.80;;;;;;;16.31;100.00;94816.63;5111326;27;20083;-45
2022/09/27 08:33:36;;;;;;;1.75;0.70;;;;;;;16.24;100.00;94817.69;5085030;28;20071;-48
2022/09/27 08:36:11;;;;;;;1.35;0.90;;;;;;;17.14;100.00;94828.56;5105941;27;20087;-48
2022/09/27 08:38:40;;;;;;;0.80;0.80;;;;;;;17.22;100.00;94825.59;5107327;27;20470;-51
2022/09/27 08:41:15;;;;;;;0.98;0.75;;;;;;;17.51;100.00;94826.59;5096074;28;20114;-48
2022/09/27 08:43:48;;;;;;;0.73;0.65;;;;;;;18.00;100.00;94832.63;5107454;27;20087;-50
2022/09/27 08:46:26;;;;;;;1.50;0.60;;;;;;;18.13;100.00;94820.09;5096575;27;20601;-52
2022/09/27 08:49:00;;;;;;;1.33;0.60;;;;;;;17.76;100.00;94833.66;5107241;27;20098;-52
2022/09/27 08:51:30;;;;;;;2.63;0.70;;;;;;;17.50;100.00;94834.81;5094570;27;20079;-50
2022/09/27 08:54:02;;;;;;;3.10;0.55;;;;;;;17.25;100.00;94837.66;5108134;27;21676;-50
2022/09/27 08:56:32;;;;;;;0.95;0.50;;;;;;;17.17;100.00;94840.59;5101186;27;20079;-53
2022/09/27 08:59:05;;;;;;;2.05;0.60;;;;;;;17.94;100.00;94843.41;5116662;27;20197;-52
2022/09/27 09:01:34;;;;;;;3.05;0.70;;;;;;;17.17;100.00;94845.94;5111413;27;20075;-50
2022/09/27 09:04:04;;;;;;;1.35;0.60;;;;;;;17.36;100.00;94846.72;5126321;27;20083;-48
2022/09/27 09:06:40;;;;;;;1.20;0.60;;;;;;;17.39;100.00;94852.41;5101737;27;20905;-51
2022/09/27 09:09:16;;;;;;;1.42;0.65;;;;;;;17.42;100.00;94851.16;5094490;28;20769;-48
2022/09/27 09:14:57;;;;;;;2.08;0.70;;;;;;;17.93;100.00;94839.94;5100222;27;20074;-47
2022/09/27 09:17:53;;;;;;;0.77;0.60;;;;;;;19.07;100.00;94834.16;5101538;27;20481;-49
2022/09/27 09:20:50;;;;;;;0.60;0.50;;;;;;;17.52;100.00;94838.91;5085704;28;20071;-49
2022/09/27 09:23:29;;;;;;;1.90;0.60;;;;;;;18.44;100.00;94842.94;5098874;28;20595;-47
2022/09/27 09:26:03;;;;;;;0.85;0.40;;;;;;;17.66;100.00;94828.84;5102032;28;20488;-47
2022/09/27 09:28:44;;;;;;;2.63;0.60;;;;;;;18.05;100.00;94837.28;5092296;28;20075;-50
2022/09/27 09:31:19;;;;;;;1.15;0.60;;;;;;;18.97;100.00;94840.13;5118916;28;20515;-51
2022/09/27 09:33:51;;;;;;;0.65;0.47;;;;;;;18.99;100.00;94842.53;5126845;28;20093;-48
2022/09/27 09:36:25;;;;;;;0.40;0.40;;;;;;;17.65;100.00;94845.06;5119376;28;20122;-47
2022/09/27 09:38:56;;;;;;;0.40;0.40;;;;;;;18.38;100.00;94852.72;5115366;28;20086;-49
2022/09/27 09:41:29;;;;;;;0.50;0.40;;;;;;;17.52;100.00;94849.56;5103059;28;20070;-47
2022/09/27 09:44:02;;;;;;;0.80;0.70;;;;;;;18.14;100.00;94849.22;5122738;28;20082;-50
2022/09/27 09:46:34;;;;;;;1.20;0.85;;;;;;;17.90;100.00;94844.91;5117064;28;20090;-49
2022/09/27 09:49:06;;;;;;;0.75;0.70;;;;;;;18.10;100.00;94841.91;5114959;28;20116;-49
2022/09/27 09:51:39;;;;;;;1.17;0.70;;;;;;;18.41;100.00;94838.91;5107344;28;20086;-49
2022/09/27 09:54:13;;;;;;;0.68;0.50;;;;;;;17.86;100.00;94857.91;5112478;28;20090;-52
2022/09/27 09:56:46;;;;;;;0.77;0.47;;;;;;;18.07;100.00;94850.41;5126574;28;20486;-53
2022/09/27 09:59:19;;;;;;;0.98;0.60;;;;;;;18.41;100.00;94852.25;5127275;28;20075;-50
2022/09/27 10:01:48;;;;;;;1.75;0.40;;;;;;;17.53;100.00;94856.50;5127978;28;20488;-48
2022/09/27 10:04:19;;;;;;;0.50;0.50;;;;;;;18.61;100.00;94848.38;5120267;28;20539;-52
2022/09/27 10:06:50;;;;;;;0.57;0.50;;;;;;;18.57;100.00;94845.38;5114979;27;20074;-47
2022/09/27 10:09:24;;;;;;;1.50;0.60;;;;;;;18.32;100.00;94866.19;5108622;27;20076;-53
2022/09/27 10:11:52;;;;;;;0.60;0.40;;;;;;;18.24;100.00;94859.34;5119063;27;20102;-49
2022/09/27 10:14:22;;;;;;;0.77;0.35;;;;;;;17.87;100.00;94875.53;5119668;27;20510;-52
2022/09/27 10:16:55;;;;;;;0.85;0.50;;;;;;;17.80;100.00;94866.81;5128311;27;20093;-47
2022/09/27 10:19:29;;;;;;;0.30;0.30;;;;;;;18.29;100.00;94859.44;5111924;27;20454;-48
2022/09/27 10:22:02;;;;;;;0.65;0.50;;;;;;;18.57;100.00;94865.94;5111133;27;20110;-54
2022/09/27 10:24:54;;;;;;;0.32;0.30;;;;;;;19.14;92.33;94860.75;5118854;27;20133;-49
2022/09/27 10:27:24;;;;;;;0.60;0.30;;;;;;;20.04;84.00;94856.50;5119913;27;20082;-54
2022/09/27 10:30:03;;;;;;;0.40;0.38;;;;;;;20.51;82.17;94865.03;5127411;27;20079;-49
2022/09/27 10:32:35;;;;;;;0.50;0.30;;;;;;;19.84;82.73;94860.44;5129544;27;20078;-50
2022/09/27 10:35:34;;;;;;;0.95;0.30;;;;;;;20.00;71.98;94866.06;5112926;27;20541;-47
2022/09/27 10:38:22;;;;;;;0.63;0.40;;;;;;;18.32;92.40;94869.66;5115401;27;20078;-50
2022/09/27 10:40:51;;;;;;;0.60;0.47;;;;;;;19.20;84.62;94862.44;5118477;27;20083;-48
2022/09/27 10:43:25;;;;;;;0.30;0.28;;;;;;;18.47;87.25;94875.31;5121709;27;20082;-47
2022/09/27 10:46:12;;;;;;;1.67;0.60;;;;;;;18.93;91.56;94884.38;5113387;27;20112;-53
2022/09/27 10:48:41;;;;;;;0.50;0.30;;;;;;;18.48;99.13;94892.97;5122995;27;20074;-48
2022/09/27 10:51:27;;;;;;;0.95;0.40;;;;;;;19.23;81.07;94861.16;5111634;27;20089;-47
2022/09/27 10:53:59;;;;;;;3.33;0.50;;;;;;;20.15;76.09;94871.66;5123551;27;20070;-49
2022/09/27 10:56:29;;;;;;;0.52;0.50;;;;;;;19.03;75.62;94891.78;5131497;27;20083;-52
2022/09/27 10:58:58;;;;;;;;;;;;;;;18.39;83.44;94885.56;5122808;27;20729;-47
2022/09/27 11:01:39;;;;;;;0.30;0.30;;;;;;;19.68;73.41;94894.16;5114885;27;19962;-52
2022/09/27 11:04:15;;;;;;;1.75;0.50;;;;;;;19.48;71.38;94884.88;5114102;27;20479;-47
2022/09/27 11:06:44;;;;;;;0.63;0.40;;;;;;;20.08;65.96;94871.00;5124697;27;20082;-48
2022/09/27 11:09:22;;;;;;;1.85;0.40;;;;;;;19.06;67.55;94861.91;5132650;27;20078;-51
2022/09/27 11:11:50;;;;;;;0.20;0.20;;;;;;;19.51;72.05;94879.91;5119051;27;20083;-48
2022/09/27 11:14:21;;;;;;;1.25;0.40;;;;;;;18.94;71.88;94869.16;5121944;27;20090;-51
2022/09/27 11:17:02;;;;;;;0.20;0.20;;;;;;;18.35;75.45;94877.19;5116169;27;20324;-51
2022/09/27 11:19:43;;;;;;;0.32;0.20;;;;;;;18.14;84.41;94883.91;5114583;27;20079;-46
2022/09/27 11:22:34;;;;;;;0.65;0.32;;;;;;;19.27;82.01;94871.16;5116832;27;20089;-50
2022/09/27 11:25:11;;;;;;;0.60;0.30;;;;;;;18.76;80.29;94874.66;5112963;27;20533;-47
2022/09/27 11:27:49;;;;;;;0.55;0.30;;;;;;;18.27;81.83;94883.69;5128184;27;20086;-52
2022/09/27 11:30:20;;;;;;;0.40;0.30;;;;;;;18.58;80.53;94888.91;5114025;27;20067;-47
2022/09/27 11:33:07;;;;;;;0.40;0.30;;;;;;;19.53;69.03;94882.31;5110808;27;20078;-48
2022/09/27 11:35:48;;;;;;;0.75;0.32;;;;;;;19.06;67.44;94861.91;5106372;27;20082;-49
2022/09/27 11:38:18;;;;;;;0.30;0.30;;;;;;;19.58;63.94;94866.38;5130991;27;20071;-50
2022/09/27 11:41:20;;;;;;;0.40;0.40;;;;;;;19.58;59.09;94863.69;5107816;27;20051;-50
2022/09/27 11:44:18;;;;;;;0.68;0.38;;;;;;;20.03;56.17;94863.72;5124082;27;20580;-54
2022/09/27 11:46:53;;;;;;;0.45;0.40;;;;;;;18.83;68.73;94872.66;5121402;27;20476;-51
2022/09/27 11:49:47;;;;;;;0.95;0.57;;;;;;;19.61;62.66;94864.06;5117285;27;20082;-51
2022/09/27 11:52:28;;;;;;;0.30;0.30;;;;;;;18.37;78.30;94877.75;5114113;27;20094;-51
2022/09/27 11:55:07;;;;;;;1.00;0.50;;;;;;;17.74;97.59;94839.16;5114368;27;20112;-51